createdAt,value
2022-12-29T00:01:19.502Z,2.70
2022-12-29T00:03:50.427Z,2.60
2022-12-29T00:06:17.789Z,2.47
2022-12-29T00:08:45.190Z,2.30
2022-12-29T00:11:13.522Z,2.55
2022-12-29T00:14:00.307Z,2.40
2022-12-29T00:16:28.508Z,2.00
2022-12-29T00:18:55.880Z,2.03
2022-12-29T00:21:43.525Z,2.05
2022-12-29T00:24:28.503Z,2.20
2022-12-29T00:27:23.611Z,2.33
2022-12-29T00:30:10.075Z,2.60
2022-12-29T00:32:56.640Z,2.70
2022-12-29T00:35:28.896Z,1.88
2022-12-29T00:38:17.040Z,2.22
2022-12-29T00:41:03.667Z,2.33
2022-12-29T00:43:49.677Z,2.15
2022-12-29T00:46:20.221Z,1.90
2022-12-29T00:49:06.426Z,1.77
2022-12-29T00:51:33.854Z,2.20
2022-12-29T00:54:01.440Z,2.40
2022-12-29T00:56:28.832Z,2.15
2022-12-29T00:58:56.221Z,2.22
2022-12-29T01:01:23.705Z,2.28
2022-12-29T01:03:51.088Z,2.45
2022-12-29T01:06:20.004Z,2.90
2022-12-29T01:08:47.393Z,2.47
2022-12-29T01:11:14.969Z,2.60
2022-12-29T01:13:43.548Z,2.63
2022-12-29T01:16:10.929Z,2.40
2022-12-29T01:18:38.330Z,2.70
2022-12-29T01:21:07.148Z,2.50
2022-12-29T01:23:37.030Z,2.53
2022-12-29T01:26:11.894Z,2.50
2022-12-29T01:28:42.576Z,2.60
2022-12-29T01:31:11.077Z,2.55
2022-12-29T01:33:38.621Z,2.40
2022-12-29T01:36:11.265Z,2.35
2022-12-29T01:38:39.244Z,2.08
2022-12-29T01:41:07.945Z,2.08
2022-12-29T01:43:49.062Z,2.10
2022-12-29T01:46:31.375Z,1.90
2022-12-29T01:49:10.305Z,1.70
2022-12-29T01:51:40.406Z,1.50
2022-12-29T01:54:13.071Z,1.73
2022-12-29T01:56:40.467Z,1.50
2022-12-29T01:59:13.760Z,1.95
2022-12-29T02:01:42.252Z,1.42
2022-12-29T02:04:12.018Z,1.38
2022-12-29T02:06:59.244Z,1.60
2022-12-29T02:09:26.844Z,1.77
2022-12-29T02:11:54.339Z,1.50
2022-12-29T02:14:21.696Z,1.42
2022-12-29T02:17:04.208Z,1.08
2022-12-29T02:20:04.745Z,1.38
2022-12-29T02:22:36.371Z,1.10
2022-12-29T02:25:15.831Z,1.10
2022-12-29T02:27:56.798Z,1.00
2022-12-29T02:30:36.033Z,0.90
2022-12-29T02:33:43.807Z,1.27
2022-12-29T02:36:35.606Z,1.17
2022-12-29T02:39:27.425Z,1.10
2022-12-29T02:42:30.502Z,1.38
2022-12-29T02:45:09.056Z,0.98
2022-12-29T02:47:39.209Z,1.67
2022-12-29T02:50:15.813Z,1.30
2022-12-29T02:52:51.361Z,1.00
2022-12-29T02:55:18.656Z,1.05
2022-12-29T02:57:45.968Z,1.08
2022-12-29T03:00:16.614Z,0.90
2022-12-29T03:03:44.219Z,1.20
2022-12-29T03:06:27.183Z,1.40
2022-12-29T03:09:29.545Z,1.40
2022-12-29T03:12:19.809Z,1.63
2022-12-29T03:15:42.482Z,1.70
2022-12-29T03:18:16.519Z,1.35
2022-12-29T03:20:55.258Z,1.52
2022-12-29T03:23:23.773Z,1.30
2022-12-29T03:25:54.038Z,1.73
2022-12-29T03:28:30.394Z,2.22
2022-12-29T03:31:00.004Z,2.03
2022-12-29T03:33:29.052Z,1.70
2022-12-29T03:36:00.374Z,2.10
2022-12-29T03:38:55.321Z,1.60
2022-12-29T03:41:31.918Z,1.83
2022-12-29T03:43:59.371Z,1.73
2022-12-29T03:46:26.893Z,1.63
2022-12-29T03:48:54.318Z,1.63
2022-12-29T03:51:21.742Z,1.80
2022-12-29T03:53:49.083Z,1.77
2022-12-29T03:56:16.349Z,2.00
2022-12-29T03:58:43.771Z,1.80
2022-12-29T04:01:11.063Z,2.15
2022-12-29T04:03:38.428Z,2.22
2022-12-29T04:06:06.108Z,1.83
2022-12-29T04:08:33.532Z,2.13
2022-12-29T04:11:00.890Z,2.60
2022-12-29T04:13:28.346Z,2.38
2022-12-29T04:15:55.686Z,2.25
2022-12-29T04:18:23.065Z,2.40
2022-12-29T04:21:03.643Z,2.47
2022-12-29T04:23:33.415Z,2.45
2022-12-29T04:26:01.095Z,2.88
2022-12-29T04:28:28.482Z,2.38
2022-12-29T04:30:55.948Z,2.40
2022-12-29T04:33:24.071Z,1.98
2022-12-29T04:35:51.447Z,2.58
2022-12-29T04:38:18.730Z,2.55
2022-12-29T04:40:46.394Z,2.38
2022-12-29T04:43:14.404Z,2.55
2022-12-29T04:45:45.991Z,2.20
2022-12-29T04:48:13.731Z,2.80
2022-12-29T04:50:42.062Z,2.85
2022-12-29T04:53:09.501Z,2.22
2022-12-29T04:55:36.827Z,1.92
2022-12-29T04:58:04.160Z,2.90
2022-12-29T05:00:31.484Z,3.08
2022-12-29T05:02:59.063Z,2.30
2022-12-29T05:05:26.600Z,2.85
2022-12-29T05:07:53.959Z,2.80
2022-12-29T05:10:21.517Z,3.00
2022-12-29T05:12:48.908Z,2.85
2022-12-29T05:15:16.251Z,2.65
2022-12-29T05:17:43.638Z,2.85
2022-12-29T05:20:11.594Z,2.90
2022-12-29T05:22:39.163Z,2.58
2022-12-29T05:25:06.878Z,2.63
2022-12-29T05:27:36.467Z,2.80
2022-12-29T05:30:04.099Z,3.05
2022-12-29T05:32:31.755Z,3.15
2022-12-29T05:34:59.047Z,2.92
2022-12-29T05:37:26.362Z,2.28
2022-12-29T05:39:53.690Z,2.97
2022-12-29T05:42:21.044Z,3.22
2022-12-29T05:44:51.049Z,3.22
2022-12-29T05:47:18.351Z,2.45
2022-12-29T05:49:45.632Z,3.63
2022-12-29T05:52:12.933Z,3.08
2022-12-29T05:54:40.225Z,3.22
2022-12-29T05:57:07.656Z,2.88
2022-12-29T05:59:34.961Z,2.30
2022-12-29T06:02:02.559Z,4.30
2022-12-29T06:04:30.077Z,2.53
2022-12-29T06:06:57.406Z,3.08
2022-12-29T06:09:24.770Z,2.72
2022-12-29T06:11:52.196Z,2.80
2022-12-29T06:14:19.936Z,2.70
2022-12-29T06:16:47.255Z,2.38
2022-12-29T06:19:14.645Z,2.85
2022-12-29T06:21:42.005Z,2.65
2022-12-29T06:24:09.391Z,2.45
2022-12-29T06:26:37.717Z,3.42
2022-12-29T06:29:05.094Z,2.58
2022-12-29T06:31:32.416Z,3.13
2022-12-29T06:34:04.974Z,3.10
2022-12-29T06:36:36.655Z,2.50
2022-12-29T06:39:04.100Z,2.67
2022-12-29T06:41:32.519Z,3.08
2022-12-29T06:44:00.015Z,3.25
2022-12-29T06:46:27.421Z,3.58
2022-12-29T06:48:54.782Z,3.15
2022-12-29T06:51:22.119Z,3.63
2022-12-29T06:53:49.423Z,3.20
2022-12-29T06:56:16.769Z,3.08
2022-12-29T06:58:44.075Z,3.40
2022-12-29T07:01:11.559Z,3.40
2022-12-29T07:03:39.019Z,3.45
2022-12-29T07:06:06.933Z,3.55
2022-12-29T07:08:34.330Z,2.58
2022-12-29T07:11:01.630Z,3.00
2022-12-29T07:13:28.975Z,2.95
2022-12-29T07:15:56.282Z,3.22
2022-12-29T07:18:23.694Z,2.58
2022-12-29T07:20:51.015Z,3.10
2022-12-29T07:23:18.339Z,2.72
2022-12-29T07:25:45.715Z,3.30
2022-12-29T07:28:14.453Z,3.28
2022-12-29T07:30:41.817Z,3.25
2022-12-29T07:33:09.089Z,4.00
2022-12-29T07:35:36.715Z,5.00
2022-12-29T07:38:04.074Z,2.92
2022-12-29T07:40:31.412Z,3.42
2022-12-29T07:42:58.747Z,3.28
2022-12-29T07:45:26.121Z,3.60
2022-12-29T07:47:53.400Z,3.45
2022-12-29T07:50:20.783Z,3.10
2022-12-29T07:52:48.961Z,3.80
2022-12-29T07:55:17.635Z,2.97
2022-12-29T07:57:45.025Z,3.72
2022-12-29T08:00:13.491Z,3.45
2022-12-29T08:02:40.824Z,3.30
2022-12-29T08:05:08.475Z,3.67
2022-12-29T08:07:35.911Z,3.47
2022-12-29T08:10:03.556Z,3.03
2022-12-29T08:12:30.903Z,3.35
2022-12-29T08:14:58.357Z,3.20
2022-12-29T08:17:25.760Z,2.90
2022-12-29T08:19:53.335Z,3.65
2022-12-29T08:22:21.132Z,2.97
2022-12-29T08:24:49.341Z,3.40
2022-12-29T08:27:20.794Z,3.33
2022-12-29T08:29:48.898Z,3.17
2022-12-29T08:32:16.438Z,3.80
2022-12-29T08:34:43.828Z,3.25
2022-12-29T08:37:11.166Z,3.33
2022-12-29T08:39:38.507Z,3.08
2022-12-29T08:42:05.848Z,3.45
2022-12-29T08:44:33.676Z,2.78
2022-12-29T08:47:01.214Z,3.40
2022-12-29T08:49:28.625Z,3.10
2022-12-29T08:51:55.969Z,2.83
2022-12-29T08:54:23.409Z,3.65
2022-12-29T08:56:51.091Z,3.10
2022-12-29T08:59:18.435Z,2.75
2022-12-29T09:01:47.415Z,3.70
2022-12-29T09:04:28.460Z,4.03
2022-12-29T09:07:05.857Z,4.55
2022-12-29T09:09:33.822Z,5.20
2022-12-29T09:12:01.445Z,3.50
2022-12-29T09:14:44.381Z,3.35
2022-12-29T09:17:41.353Z,3.85
2022-12-29T09:20:11.330Z,3.65
2022-12-29T09:22:38.809Z,3.58
2022-12-29T09:25:06.642Z,3.47
2022-12-29T09:27:34.275Z,3.88
2022-12-29T09:30:01.726Z,2.95
2022-12-29T09:32:33.683Z,2.72
2022-12-29T09:35:01.700Z,2.78
2022-12-29T09:37:36.502Z,2.65
2022-12-29T09:40:04.788Z,2.38
2022-12-29T09:43:02.845Z,2.40
2022-12-29T09:45:35.997Z,2.30
2022-12-29T09:48:09.714Z,2.00
2022-12-29T09:50:39.154Z,2.50
2022-12-29T09:53:15.627Z,3.00
2022-12-29T09:55:46.340Z,3.63
2022-12-29T09:58:42.775Z,3.83
2022-12-29T10:01:43.454Z,3.28
2022-12-29T10:04:10.819Z,4.18
2022-12-29T10:09:53.127Z,4.15
2022-12-29T10:12:26.519Z,4.15
2022-12-29T10:14:59.743Z,4.30
2022-12-29T10:17:32.950Z,4.85
2022-12-29T10:20:08.306Z,4.47
2022-12-29T10:22:50.633Z,4.72
2022-12-29T10:25:32.951Z,4.60
2022-12-29T10:28:04.498Z,4.03
2022-12-29T10:30:34.876Z,4.05
2022-12-29T10:33:16.180Z,4.55
2022-12-29T10:35:45.497Z,4.60
2022-12-29T10:38:53.399Z,4.72
2022-12-29T10:41:35.669Z,4.70
2022-12-29T10:44:03.447Z,5.65
2022-12-29T10:46:35.267Z,5.05
2022-12-29T10:49:06.495Z,5.65
2022-12-29T10:51:42.549Z,4.97
2022-12-29T10:54:19.447Z,5.40
2022-12-29T10:56:56.562Z,5.30
2022-12-29T10:59:27.003Z,6.20
2022-12-29T11:02:12.892Z,5.65
2022-12-29T11:05:18.244Z,5.88
2022-12-29T11:07:47.518Z,5.97
2022-12-29T11:10:25.786Z,5.70
2022-12-29T11:13:02.526Z,5.00
2022-12-29T11:15:44.521Z,5.65
2022-12-29T11:18:35.258Z,4.82
2022-12-29T11:21:06.036Z,5.63
2022-12-29T11:23:36.377Z,5.50
2022-12-29T11:26:36.046Z,5.65
2022-12-29T11:29:09.684Z,5.55
2022-12-29T11:31:46.899Z,5.80
2022-12-29T11:34:34.758Z,4.95
2022-12-29T11:37:07.940Z,5.20
2022-12-29T11:39:40.623Z,5.63
2022-12-29T11:42:14.066Z,7.00
2022-12-29T11:44:47.124Z,6.22
2022-12-29T11:47:34.641Z,5.68
2022-12-29T11:50:09.701Z,4.72
2022-12-29T11:52:44.279Z,5.88
2022-12-29T11:55:23.260Z,5.35
2022-12-29T11:57:57.913Z,6.05
2022-12-29T12:00:27.061Z,5.70
2022-12-29T12:03:18.262Z,5.28
2022-12-29T12:06:06.741Z,5.65
2022-12-29T12:09:15.376Z,5.70
2022-12-29T12:11:46.552Z,5.55
2022-12-29T12:14:17.735Z,5.30
2022-12-29T12:16:47.492Z,5.00
2022-12-29T12:19:42.110Z,6.03
2022-12-29T12:22:28.556Z,5.72
2022-12-29T12:25:40.741Z,5.68
2022-12-29T12:28:19.542Z,5.53
2022-12-29T12:30:51.060Z,5.32
2022-12-29T12:33:31.315Z,5.10
2022-12-29T12:36:19.257Z,4.93
2022-12-29T12:38:46.881Z,4.60
2022-12-29T12:41:37.425Z,5.93
2022-12-29T12:44:45.609Z,4.68
2022-12-29T12:47:16.025Z,5.28
2022-12-29T12:49:58.847Z,5.15
2022-12-29T12:52:49.740Z,4.75
2022-12-29T12:55:50.009Z,5.72
2022-12-29T12:58:54.030Z,4.97
2022-12-29T13:01:36.325Z,4.60
2022-12-29T13:04:18.967Z,5.55
2022-12-29T13:06:55.247Z,4.63
2022-12-29T13:09:46.661Z,3.97
2022-12-29T13:12:18.407Z,3.85
2022-12-29T13:15:04.515Z,3.15
2022-12-29T13:17:56.693Z,2.30
2022-12-29T13:20:47.283Z,1.67
2022-12-29T13:23:20.664Z,1.67
2022-12-29T13:25:50.958Z,1.70
2022-12-29T13:28:28.114Z,1.83
2022-12-29T13:31:05.422Z,2.65
2022-12-29T13:33:50.932Z,2.70
2022-12-29T13:36:40.680Z,2.42
2022-12-29T13:39:24.348Z,2.67
2022-12-29T13:41:54.363Z,2.70
2022-12-29T13:44:56.522Z,2.30
2022-12-29T13:47:28.529Z,3.78
2022-12-29T13:49:58.714Z,3.35
2022-12-29T13:52:37.544Z,3.38
2022-12-29T13:55:20.795Z,3.25
2022-12-29T13:57:53.469Z,3.65
2022-12-29T14:00:22.871Z,3.30
2022-12-29T14:03:19.058Z,3.42
2022-12-29T14:05:47.822Z,2.95
2022-12-29T14:08:19.847Z,3.80
2022-12-29T14:10:51.937Z,2.97
2022-12-29T14:13:22.381Z,3.22
2022-12-29T14:16:01.130Z,3.33
2022-12-29T14:18:31.648Z,3.42
2022-12-29T14:21:17.931Z,3.05
2022-12-29T14:23:49.013Z,3.55
2022-12-29T14:26:36.549Z,3.92
2022-12-29T14:29:23.353Z,3.30
2022-12-29T14:31:51.510Z,3.08
2022-12-29T14:34:24.100Z,2.90
2022-12-29T14:37:04.445Z,2.80
2022-12-29T14:40:00.453Z,3.20
2022-12-29T14:42:28.717Z,3.20
2022-12-29T14:45:15.098Z,3.15
2022-12-29T14:47:45.157Z,2.90
2022-12-29T14:50:14.965Z,3.28
2022-12-29T14:53:02.051Z,2.92
2022-12-29T14:55:57.202Z,2.92
2022-12-29T14:58:33.889Z,2.80
2022-12-29T15:01:01.604Z,3.08
2022-12-29T15:03:51.426Z,2.85
2022-12-29T15:06:23.782Z,3.53
2022-12-29T15:08:56.252Z,2.67
2022-12-29T15:11:26.436Z,2.58
2022-12-29T15:13:53.993Z,2.88
2022-12-29T15:16:41.899Z,2.80
2022-12-29T15:19:24.123Z,3.25
2022-12-29T15:21:52.802Z,2.33
2022-12-29T15:24:20.631Z,2.92
2022-12-29T15:26:58.136Z,2.70
2022-12-29T15:29:45.177Z,2.22
2022-12-29T15:32:26.286Z,2.25
2022-12-29T15:35:17.788Z,2.45
2022-12-29T15:37:45.048Z,2.63
2022-12-29T15:40:30.856Z,2.47
2022-12-29T15:43:20.248Z,2.20
2022-12-29T15:45:50.689Z,2.40
2022-12-29T15:48:24.917Z,2.33
2022-12-29T15:50:52.994Z,2.40
2022-12-29T15:53:30.763Z,1.95
2022-12-29T15:56:09.960Z,2.10
2022-12-29T15:58:47.930Z,1.95
2022-12-29T16:01:28.190Z,2.60
2022-12-29T16:03:55.785Z,2.55
2022-12-29T16:06:33.867Z,2.17
2022-12-29T16:09:30.693Z,2.20
2022-12-29T16:12:02.577Z,2.25
2022-12-29T16:14:38.730Z,2.17
2022-12-29T16:17:10.146Z,1.92
2022-12-29T16:19:41.706Z,2.50
2022-12-29T16:22:29.992Z,1.95
2022-12-29T16:25:19.496Z,2.10
2022-12-29T16:27:46.885Z,2.50
2022-12-29T16:30:32.822Z,2.15
2022-12-29T16:33:03.457Z,2.88
2022-12-29T16:35:44.529Z,2.40
2022-12-29T16:38:16.647Z,3.38
2022-12-29T16:40:57.004Z,2.47
2022-12-29T16:43:26.325Z,2.63
2022-12-29T16:45:55.147Z,2.63
2022-12-29T16:48:26.680Z,2.55
2022-12-29T16:51:06.557Z,2.90
2022-12-29T16:53:37.455Z,2.90
2022-12-29T16:56:24.438Z,3.47
2022-12-29T16:58:55.300Z,2.92
2022-12-29T17:01:23.353Z,3.13
2022-12-29T17:03:59.665Z,3.33
2022-12-29T17:06:27.203Z,3.20
2022-12-29T17:08:54.675Z,3.10
2022-12-29T17:11:51.253Z,2.47
2022-12-29T17:15:00.347Z,3.20
2022-12-29T17:17:47.397Z,2.65
2022-12-29T17:20:26.047Z,3.50
2022-12-29T17:22:54.284Z,3.20
2022-12-29T17:25:30.170Z,3.60
2022-12-29T17:28:00.740Z,2.83
2022-12-29T17:30:33.573Z,3.70
2022-12-29T17:33:13.132Z,3.47
2022-12-29T17:35:40.839Z,3.42
2022-12-29T17:38:17.100Z,2.75
2022-12-29T17:40:44.532Z,3.08
2022-12-29T17:43:14.829Z,3.17
2022-12-29T17:45:43.211Z,3.25
2022-12-29T17:48:15.873Z,3.88
2022-12-29T17:50:43.837Z,6.38
2022-12-29T17:53:24.547Z,3.40
2022-12-29T17:55:52.096Z,5.32
2022-12-29T17:58:22.133Z,3.05
2022-12-29T18:00:52.354Z,3.15
2022-12-29T18:03:26.833Z,3.45
2022-12-29T18:05:54.383Z,3.40
2022-12-29T18:08:22.014Z,3.58
2022-12-29T18:10:51.137Z,3.08
2022-12-29T18:13:27.929Z,3.90
2022-12-29T18:15:58.453Z,3.40
2022-12-29T18:18:27.650Z,4.15
2022-12-29T18:20:56.816Z,4.30
2022-12-29T18:23:29.328Z,3.95
2022-12-29T18:26:00.067Z,3.92
2022-12-29T18:28:27.850Z,8.43
2022-12-29T18:30:59.097Z,4.00
2022-12-29T18:33:27.112Z,4.22
2022-12-29T18:36:03.328Z,4.45
2022-12-29T18:38:31.403Z,4.60
2022-12-29T18:40:59.982Z,3.67
2022-12-29T18:43:27.672Z,4.60
2022-12-29T18:45:55.171Z,4.90
2022-12-29T18:48:22.975Z,5.13
2022-12-29T18:50:52.033Z,5.00
2022-12-29T18:53:26.277Z,5.22
2022-12-29T18:55:54.294Z,5.22
2022-12-29T19:00:50.988Z,4.53
2022-12-29T19:03:19.302Z,5.38
2022-12-29T19:05:48.853Z,5.80
2022-12-29T19:08:20.834Z,4.82
2022-12-29T19:10:48.256Z,5.13
2022-12-29T19:13:20.212Z,4.65
2022-12-29T19:15:48.170Z,4.67
2022-12-29T19:21:09.233Z,5.32
2022-12-29T19:23:37.625Z,5.45
2022-12-29T19:26:06.080Z,5.00
2022-12-29T19:28:33.433Z,5.50
2022-12-29T19:31:03.673Z,4.70
2022-12-29T19:33:33.531Z,5.68
2022-12-29T19:36:02.272Z,4.65
2022-12-29T19:38:29.980Z,5.75
2022-12-29T19:40:57.654Z,5.57
2022-12-29T19:43:35.308Z,4.82
2022-12-29T19:46:08.482Z,4.88
2022-12-29T19:48:36.576Z,4.70
2022-12-29T19:51:08.744Z,5.00
2022-12-29T19:53:37.126Z,5.20
2022-12-29T19:56:06.090Z,6.20
2022-12-29T19:58:36.359Z,5.25
2022-12-29T20:01:07.047Z,5.00
2022-12-29T20:03:41.192Z,5.63
2022-12-29T20:06:09.994Z,5.63
2022-12-29T20:08:38.195Z,5.47
2022-12-29T20:11:09.914Z,4.82
2022-12-29T20:13:37.634Z,4.60
2022-12-29T20:16:07.812Z,4.18
2022-12-29T20:18:36.323Z,4.43
2022-12-29T20:21:05.323Z,4.53
2022-12-29T20:23:37.036Z,4.63
2022-12-29T20:26:04.481Z,5.75
2022-12-29T20:28:32.326Z,4.18
2022-12-29T20:31:08.995Z,4.43
2022-12-29T20:33:36.918Z,4.47
2022-12-29T20:36:17.149Z,5.13
2022-12-29T20:38:46.545Z,5.40
2022-12-29T20:41:15.730Z,5.00
2022-12-29T20:43:43.736Z,5.25
2022-12-29T20:46:12.468Z,5.47
2022-12-29T20:48:40.285Z,4.13
2022-12-29T20:51:08.134Z,4.88
2022-12-29T20:53:38.164Z,4.15
2022-12-29T20:56:08.274Z,5.10
2022-12-29T20:58:59.968Z,4.22
2022-12-29T21:01:28.769Z,4.43
2022-12-29T21:06:27.974Z,4.70
2022-12-29T21:08:55.330Z,3.50
2022-12-29T21:11:24.222Z,4.15
2022-12-29T21:13:51.637Z,3.65
2022-12-29T21:16:22.176Z,4.18
2022-12-29T21:18:50.439Z,4.18
2022-12-29T21:21:23.331Z,4.28
2022-12-29T21:26:21.260Z,3.50
2022-12-29T21:28:48.681Z,3.97
2022-12-29T21:31:54.700Z,5.53
2022-12-29T21:34:27.953Z,3.90
2022-12-29T21:36:55.382Z,4.05
2022-12-29T21:39:23.031Z,3.58
2022-12-29T21:41:52.059Z,4.20
2022-12-29T21:44:37.994Z,3.70
2022-12-29T21:47:05.403Z,3.55
2022-12-29T21:49:33.144Z,3.55
2022-12-29T21:52:00.669Z,3.75
2022-12-29T21:54:48.407Z,3.83
2022-12-29T21:57:37.992Z,4.03
2022-12-29T22:00:27.208Z,3.30
2022-12-29T22:03:22.020Z,6.35
2022-12-29T22:06:09.644Z,4.20
2022-12-29T22:08:55.984Z,4.25
2022-12-29T22:11:42.183Z,4.30
2022-12-29T22:14:09.725Z,4.35
2022-12-29T22:16:37.329Z,5.10
2022-12-29T22:19:05.061Z,4.35
2022-12-29T22:21:32.444Z,5.80
2022-12-29T22:24:00.756Z,5.20
2022-12-29T22:26:28.187Z,4.57
2022-12-29T22:28:55.623Z,4.43
2022-12-29T22:31:29.183Z,4.95
2022-12-29T22:34:03.976Z,4.32
2022-12-29T22:36:32.348Z,4.35
2022-12-29T22:38:59.753Z,3.78
2022-12-29T22:41:28.400Z,5.00
2022-12-29T22:43:56.006Z,4.10
2022-12-29T22:46:23.518Z,4.03
2022-12-29T22:48:51.025Z,4.05
2022-12-29T22:51:18.343Z,4.22
2022-12-29T22:53:48.330Z,3.38
2022-12-29T22:56:15.665Z,3.83
2022-12-29T22:58:44.274Z,4.32
2022-12-29T23:01:13.246Z,3.90
2022-12-29T23:03:41.012Z,3.42
2022-12-29T23:06:11.417Z,3.25
2022-12-29T23:08:39.998Z,3.80
2022-12-29T23:11:09.799Z,3.20
2022-12-29T23:13:37.333Z,3.50
2022-12-29T23:16:05.170Z,3.22
2022-12-29T23:18:32.622Z,4.00
2022-12-29T23:20:59.985Z,3.75
2022-12-29T23:23:49.172Z,3.22
2022-12-29T23:26:19.036Z,3.15
2022-12-29T23:28:46.806Z,3.20
2022-12-29T23:31:14.600Z,4.03
2022-12-29T23:33:42.164Z,3.53
2022-12-29T23:36:09.552Z,3.53
2022-12-29T23:38:36.880Z,3.50
2022-12-29T23:41:04.391Z,3.83
2022-12-29T23:43:31.950Z,3.85
2022-12-29T23:46:00.110Z,3.42
2022-12-29T23:48:27.503Z,3.08
2022-12-29T23:50:56.388Z,3.47
2022-12-29T23:53:23.748Z,3.40
2022-12-29T23:55:54.772Z,3.40
2022-12-29T23:58:22.486Z,3.33
